x

Isle Of Shoals, Nh (iosn3) Weather Station

11:00 - Wed 4th Mar 2015 All times are EST. -5 hours from GMT.

  • Wind
    20mph
  • Luft Temp 39°f
  • Sea Pressure 1006.1mb
  • Isle Of Shoals, Nh
  • Isle Of Shoals, Nh

More Historic Weather Station data

Upgrade to MSW Pro to gain access to the past 30 days of data for over 8000 Wavebouys and Weather Stations around the globe.

Join Pro

Comparision Forecast

View Surf forecast
   
Mi 03/04 11:00 20
mph
1006.1mb 39f
10:00 11 13 mph 1005.7mb 37f
9:00 15 16 mph 1004.9mb 37f
8:00 16 17 mph 1004.9mb 37f
7:00 20 21 mph 1004.1mb 36f
6:00 18 21 mph 1002.4mb 36f
5:00 23 25 mph 1002mb 35f
4:00 22 23 mph 1002mb 35f
3:00 18 20 mph 1002.5mb 33f
2:00 11 13 mph 1004.8mb 32f
1:00 24 26 mph 1005.9mb 32f
12:00 33 37 mph 1007.5mb 32f
Di 03/03 11:00 36 39 mph 1009.9mb 30f
10:00 26 31 mph 1012.9mb 29f
9:00 23 28 mph 1015.4mb 27f
8:00 32 37 mph 1017.4mb 26f
7:00 25 28 mph 1018.7mb 30f
6:00 26 28 mph 1019.7mb 28f
5:00 20 21 mph 1021.1mb 29f
4:00 13 15 mph 1022.2mb 28f
3:00 14 15 mph 1023.6mb 26f
2:00 13 14 mph 1024.7mb 25f
1:00 7 9 mph 1026.2mb 25f
12:00 5 6 mph 1027.5mb 24f
11:00 5 6 mph 1027.8mb 23f
10:00 10 11 mph 1027.9mb 21f
9:00 14 15 mph 1028.1mb 20f
8:00 17 20 mph 1027.6mb 19f
7:00 21 24 mph 1026.8mb 19f
6:00 22 24 mph 1026.7mb 20f
5:00 28 31 mph 1025.4mb 20f
4:00 28 32 mph 1024.3mb 21f
3:00 28 31 mph 1023.4mb 22f
2:00 20 22 mph 1023.9mb 23f
1:00 25 30 mph 1023mb 24f
12:00 29 34 mph 1021.9mb 25f
Mo 03/02 11:00 26 37 mph 1021.3mb 26f
10:00 33 39 mph 1020.1mb 27f
9:00 22 24 mph 1019.5mb 28f
8:00 23 28 mph 1018.3mb 28f
7:00 25 29 mph 1017.4mb 29f
6:00 36 39 mph 1015.1mb 31f
5:00 33 37 mph 1013.5mb 32f
4:00 33 38 mph 1012.8mb 33f
3:00 29 32 mph 1012.6mb 32f
2:00 33 38 mph 1011.7mb 32f
1:00 33 38 mph 1011.6mb 32f
12:00 30 34 mph 1011.7mb 31f
11:00 29 32 mph 1011.7mb 31f
10:00 23 25 mph 1011.6mb 29f
9:00 15 16 mph 1011.9mb 27f
8:00 15
mph
1012.2mb 26f
7:00 10 11 mph 1012.2mb 25f
6:00 13
mph
1012.8mb 24f
5:00 15 16 mph 1013.1mb 25f
4:00 15 16 mph 1013.5mb 26f
3:00 13 14 mph 1014.2mb 26f
2:00 13 15 mph 1015.5mb 27f
1:00 13 15 mph 1016.9mb 27f
12:00 16 17 mph 1018.5mb 27f
So 03/01 11:00 16 17 mph 1019.7mb 28f
10:00 18 21 mph 1021.1mb 28f
9:00 17 20 mph 1022.7mb 28f
8:00 21 22 mph 1024mb 27f
7:00 20 21 mph 1025.2mb 27f
6:00 17 20 mph 1026.6mb 26f
5:00 23 25 mph 1027.7mb 28f
4:00 18 21 mph 1028.9mb 29f
3:00 23 25 mph 1030mb 28f
2:00 17 18 mph 1031.2mb 28f
1:00 18 20 mph 1032.5mb 27f
12:00 6 7 mph 1033.9mb 24f
11:00 5
mph
1035.8mb 23f
10:00 1 2 mph 1036.3mb 21f
9:00 2 3 mph 1037.1mb 20f
8:00 7 8 mph 1038.1mb 20f
7:00 8 9 mph 1037.5mb 20f
6:00 9 10 mph 1037.3mb 20f
5:00 8 10 mph 1037.7mb 22f
4:00 8 9 mph 1037.8mb 21f
3:00 10 11 mph 1037.9mb 22f
2:00 13 14 mph 1038.1mb 23f
1:00 17 18 mph 1038.3mb 24f
12:00 18 20 mph 1037.9mb 26f
Sa 02/28 11:00 13 14 mph 1038.2mb 27f
10:00 13 14 mph 1038.4mb 28f
9:00 15 16 mph 1038.3mb 28f
8:00 16 18 mph 1038mb 30f
7:00 13 15 mph 1037.9mb 30f
6:00 14 15 mph 1037.6mb 29f